Observation data for White River Lake on 07/20/2019      Previous  Date       Current Mesonet Observations  Soil Data  Daily Summary Page  Observations in Plain Language
KWVS 200500Z 17010KT 29/12 A2993 RMK A01 T02900122  RH  037%=      5-min Rain = 0
KWVS 200505Z 17010KT 29/12 A2993 RMK A01 T02900123  RH  037%=      5-min Rain = 0
KWVS 200510Z 17010KT 29/12 A2993 RMK A01 T02900123  RH  037%=      5-min Rain = 0
KWVS 200515Z 17010KT 29/12 A2993 RMK A01 T02880124  RH  038%=      5-min Rain = 0
KWVS 200520Z 17010KT 29/12 A2993 RMK A01 T02870124  RH  038%=      5-min Rain = 0
KWVS 200525Z 17009KT 29/12 A2993 RMK A01 T02860124  RH  038%=      5-min Rain = 0
KWVS 200530Z 17009KT 29/12 A2993 RMK A01 T02850123  RH  038%=      5-min Rain = 0
KWVS 200535Z 17010KT 29/12 A2993 RMK A01 T02850123  RH  038%=      5-min Rain = 0
KWVS 200540Z 17011KT 29/12 A2993 RMK A01 T02860123  RH  038%=      5-min Rain = 0
KWVS 200545Z 18011KT 29/12 A2993 RMK A01 T02860122  RH  038%=      5-min Rain = 0
KWVS 200550Z 18011G16KT 29/12 A2993 RMK A01 T02870122  RH  038%=      5-min Rain = 0
KWVS 200555Z 18011KT 29/12 A2993 RMK A01 T02850123  RH  038%=      5-min Rain = 0
KWVS 200600Z 18011KT 29/12 A2993 RMK A01 T02850123  RH  038%=      5-min Rain = 0
KWVS 200605Z 18011KT 29/12 A2993 RMK A01 T02850123  RH  038%=      5-min Rain = 0
KWVS 200610Z 18011KT 29/12 A2993 RMK A01 T02850124  RH  038%=      5-min Rain = 0
KWVS 200615Z 18012KT 29/13 A2993 RMK A01 T02860125  RH  039%=      5-min Rain = 0
KWVS 200620Z 18012G18KT 29/13 A2993 RMK A01 T02860126  RH  039%=      5-min Rain = 0
KWVS 200625Z 18012KT 29/13 A2993 RMK A01 T02860127  RH  039%=      5-min Rain = 0
KWVS 200630Z 18012KT 29/13 A2993 RMK A01 T02860127  RH  039%=      5-min Rain = 0
KWVS 200635Z 18012KT 28/13 A2993 RMK A01 T02840127  RH  039%=      5-min Rain = 0
KWVS 200640Z 18012G18KT 28/13 A2993 RMK A01 T02830128  RH  040%=      5-min Rain = 0
KWVS 200645Z 18011KT 28/13 A2993 RMK A01 T02830128  RH  040%=      5-min Rain = 0
KWVS 200650Z 18010KT 28/13 A2993 RMK A01 T02800128  RH  041%=      5-min Rain = 0
KWVS 200655Z 18011KT 28/13 A2993 RMK A01 T02790128  RH  041%=      5-min Rain = 0
KWVS 200700Z 18010KT 28/13 A2993 RMK A01 T02790128  RH  041%=      5-min Rain = 0
KWVS 200705Z 18010KT 28/13 A2993 RMK A01 T02780128  RH  041%=      5-min Rain = 0
KWVS 200710Z 18010KT 28/13 A2993 RMK A01 T02770129  RH  042%=      5-min Rain = 0
KWVS 200715Z 18010KT 28/13 A2993 RMK A01 T02760129  RH  042%=      5-min Rain = 0
KWVS 200720Z 18010KT 28/13 A2993 RMK A01 T02750129  RH  042%=      5-min Rain = 0
KWVS 200725Z 18010KT 27/13 A2993 RMK A01 T02730129  RH  043%=      5-min Rain = 0
KWVS 200730Z 18008KT 27/13 A2993 RMK A01 T02710129  RH  043%=      5-min Rain = 0
KWVS 200735Z 18008KT 27/13 A2993 RMK A01 T02690129  RH  044%=      5-min Rain = 0
KWVS 200740Z 17008KT 27/13 A2993 RMK A01 T02670129  RH  044%=      5-min Rain = 0
KWVS 200745Z 18009KT 27/13 A2993 RMK A01 T02670130  RH  044%=      5-min Rain = 0
KWVS 200750Z 18010KT 27/13 A2993 RMK A01 T02680130  RH  044%=      5-min Rain = 0
KWVS 200755Z 18009KT 27/13 A2993 RMK A01 T02670130  RH  044%=      5-min Rain = 0
KWVS 200800Z 18010KT 27/13 A2993 RMK A01 T02670130  RH  044%=      5-min Rain = 0
KWVS 200805Z 18010KT 27/13 A2993 RMK A01 T02690130  RH  044%=      5-min Rain = 0
KWVS 200810Z 18009KT 27/13 A2993 RMK A01 T02670130  RH  045%=      5-min Rain = 0
KWVS 200815Z 18009KT 27/13 A2993 RMK A01 T02660131  RH  045%=      5-min Rain = 0
KWVS 200820Z 18010KT 27/13 A2993 RMK A01 T02670131  RH  045%=      5-min Rain = 0
KWVS 200825Z 18010KT 27/13 A2993 RMK A01 T02670132  RH  045%=      5-min Rain = 0
KWVS 200830Z 18009KT 27/13 A2993 RMK A01 T02660132  RH  045%=      5-min Rain = 0
KWVS 200835Z 18010KT 27/13 A2993 RMK A01 T02660133  RH  046%=      5-min Rain = 0
KWVS 200840Z 18010KT 27/13 A2993 RMK A01 T02660134  RH  046%=      5-min Rain = 0
KWVS 200845Z 18011KT 27/13 A2993 RMK A01 T02680134  RH  046%=      5-min Rain = 0
KWVS 200850Z 18009KT 27/13 A2993 RMK A01 T02660134  RH  046%=      5-min Rain = 0
KWVS 200855Z 18009KT 26/14 A2993 RMK A01 T02630135  RH  047%=      5-min Rain = 0
KWVS 200900Z 17010KT 26/14 A2993 RMK A01 T02630135  RH  047%=      5-min Rain = 0
KWVS 200905Z 18010KT 26/14 A2993 RMK A01 T02620136  RH  048%=      5-min Rain = 0
KWVS 200910Z 18011KT 26/14 A2993 RMK A01 T02620138  RH  048%=      5-min Rain = 0
KWVS 200915Z 18014G19KT 26/14 A2993 RMK A01 T02640142  RH  049%=      5-min Rain = 0
KWVS 200920Z 18014G21KT 27/15 A2993 RMK A01 T02660146  RH  050%=      5-min Rain = 0
KWVS 200925Z 18013G18KT 27/15 A2993 RMK A01 T02660148  RH  050%=      5-min Rain = 0
KWVS 200930Z 18011G16KT 27/15 A2993 RMK A01 T02650149  RH  051%=      5-min Rain = 0
KWVS 200935Z 18011G16KT 26/15 A2993 RMK A01 T02630149  RH  052%=      5-min Rain = 0
KWVS 200940Z 18010KT 26/15 A2993 RMK A01 T02610149  RH  052%=      5-min Rain = 0
KWVS 200945Z 18010KT 26/15 A2993 RMK A01 T02590149  RH  053%=      5-min Rain = 0
KWVS 200950Z 18012KT 26/15 A2993 RMK A01 T02590150  RH  053%=      5-min Rain = 0
KWVS 200955Z 18011KT 26/15 A2993 RMK A01 T02590152  RH  054%=      5-min Rain = 0
KWVS 201000Z 18011KT 26/15 A2993 RMK A01 T02580152  RH  055%=      5-min Rain = 0
KWVS 201005Z 18011KT 26/15 A2993 RMK A01 T02560153  RH  055%=      5-min Rain = 0
KWVS 201010Z 18012KT 26/16 A2993 RMK A01 T02570155  RH  056%=      5-min Rain = 0
KWVS 201015Z 18012KT 26/16 A2993 RMK A01 T02560157  RH  057%=      5-min Rain = 0
KWVS 201020Z 18012KT 26/16 A2993 RMK A01 T02560158  RH  057%=      5-min Rain = 0
KWVS 201025Z 18012G17KT 26/16 A2994 RMK A01 T02550159  RH  058%=      5-min Rain = 0
KWVS 201030Z 17011KT 25/16 A2993 RMK A01 T02530159  RH  059%=      5-min Rain = 0
KWVS 201035Z 17010KT 25/16 A2993 RMK A01 T02530160  RH  059%=      5-min Rain = 0
KWVS 201040Z 18011KT 25/16 A2993 RMK A01 T02520160  RH  060%=      5-min Rain = 0
KWVS 201045Z 18011KT 25/16 A2994 RMK A01 T02510161  RH  060%=      5-min Rain = 0
KWVS 201050Z 18010KT 25/16 A2994 RMK A01 T02500161  RH  061%=      5-min Rain = 0
KWVS 201055Z 18010G15KT 25/16 A2994 RMK A01 T02490162  RH  061%=      5-min Rain = 0
KWVS 201100Z 18010KT 25/16 A2994 RMK A01 T02480162  RH  062%=      5-min Rain = 0
KWVS 201105Z 18009KT 25/16 A2994 RMK A01 T02460162  RH  063%=      5-min Rain = 0
KWVS 201110Z 18010KT 25/16 A2993 RMK A01 T02460163  RH  063%=      5-min Rain = 0
KWVS 201115Z 18010KT 25/16 A2993 RMK A01 T02450163  RH  063%=      5-min Rain = 0
KWVS 201120Z 18010KT 24/16 A2993 RMK A01 T02440163  RH  064%=      5-min Rain = 0
KWVS 201125Z 18010KT 24/16 A2994 RMK A01 T02430164  RH  064%=      5-min Rain = 0
KWVS 201130Z 18010G15KT 24/17 A2994 RMK A01 T02430165  RH  065%=      5-min Rain = 0
KWVS 201135Z 18010KT 24/17 A2994 RMK A01 T02420165  RH  065%=      5-min Rain = 0
KWVS 201140Z 18009KT 24/17 A2994 RMK A01 T02410166  RH  066%=      5-min Rain = 0
KWVS 201145Z 18010KT 24/17 A2994 RMK A01 T02400166  RH  066%=      5-min Rain = 0
KWVS 201150Z 18009KT 24/17 A2994 RMK A01 T02400167  RH  067%=      5-min Rain = 0
KWVS 201155Z 17009KT 24/17 A2994 RMK A01 T02380167  RH  068%=      5-min Rain = 0
KWVS 201200Z 17008KT 24/17 A2994 RMK A01 T02370167  RH  068%=      5-min Rain = 0
KWVS 201205Z 17008KT 24/17 A2994 RMK A01 T02360167  RH  069%=      5-min Rain = 0
KWVS 201210Z 17008KT 24/17 A2994 RMK A01 T02350168  RH  069%=      5-min Rain = 0
KWVS 201215Z 17007KT 24/17 A2994 RMK A01 T02360169  RH  069%=      5-min Rain = 0
KWVS 201220Z 17007KT 24/17 A2994 RMK A01 T02360169  RH  070%=      5-min Rain = 0
KWVS 201225Z 16007KT 24/17 A2994 RMK A01 T02360170  RH  070%=      5-min Rain = 0
KWVS 201230Z 16007KT 24/17 A2994 RMK A01 T02370170  RH  070%=      5-min Rain = 0
KWVS 201235Z 16007KT 24/17 A2995 RMK A01 T02380171  RH  069%=      5-min Rain = 0
KWVS 201240Z 17007KT 24/17 A2995 RMK A01 T02390172  RH  069%=      5-min Rain = 0
KWVS 201245Z 17006KT 24/17 A2995 RMK A01 T02410173  RH  069%=      5-min Rain = 0
KWVS 201250Z 16007KT 24/17 A2995 RMK A01 T02420173  RH  069%=      5-min Rain = 0
KWVS 201255Z 16007KT 24/17 A2995 RMK A01 T02440174  RH  069%=      5-min Rain = 0
KWVS 201300Z 16007KT 25/18 A2995 RMK A01 T02450175  RH  068%=      5-min Rain = 0
KWVS 201305Z 16008KT 25/18 A2995 RMK A01 T02470176  RH  068%=      5-min Rain = 0
KWVS 201310Z 17009KT 25/18 A2995 RMK A01 T02490177  RH  067%=      5-min Rain = 0
KWVS 201315Z 17009KT 25/18 A2995 RMK A01 T02510178  RH  067%=      5-min Rain = 0
KWVS 201320Z 17010KT 25/18 A2995 RMK A01 T02530178  RH  067%=      5-min Rain = 0
KWVS 201325Z 17010KT 25/18 A2995 RMK A01 T02540179  RH  066%=      5-min Rain = 0
KWVS 201330Z 17011KT 26/18 A2995 RMK A01 T02560179  RH  066%=      5-min Rain = 0
KWVS 201335Z 17012KT 26/18 A2995 RMK A01 T02570179  RH  066%=      5-min Rain = 0
KWVS 201340Z 16012KT 26/18 A2995 RMK A01 T02580180  RH  065%=      5-min Rain = 0
KWVS 201345Z 17013G19KT 26/18 A2995 RMK A01 T02590180  RH  065%=      5-min Rain = 0
KWVS 201350Z 17013KT 26/18 A2995 RMK A01 T02600180  RH  065%=      5-min Rain = 0
KWVS 201355Z 17014KT 26/18 A2995 RMK A01 T02630181  RH  064%=      5-min Rain = 0
KWVS 201400Z 18014G19KT 26/18 A2995 RMK A01 T02640181  RH  063%=      5-min Rain = 0
KWVS 201405Z 19013G18KT 27/18 A2995 RMK A01 T02680182  RH  062%=      5-min Rain = 0
KWVS 201410Z 18016G21KT 27/18 A2995 RMK A01 T02660179  RH  062%=      5-min Rain = 0
KWVS 201415Z 18015G21KT 27/18 A2995 RMK A01 T02690180  RH  062%=      5-min Rain = 0
KWVS 201420Z 19013G19KT 27/18 A2995 RMK A01 T02700180  RH  061%=      5-min Rain = 0
KWVS 201425Z 18013G18KT 28/18 A2995 RMK A01 T02750181  RH  060%=      5-min Rain = 0
KWVS 201430Z 19014KT 28/18 A2995 RMK A01 T02760178  RH  058%=      5-min Rain = 0
KWVS 201435Z 18014G20KT 28/18 A2995 RMK A01 T02760178  RH  058%=      5-min Rain = 0
KWVS 201440Z 18015KT 28/18 A2995 RMK A01 T02770176  RH  057%=      5-min Rain = 0
KWVS 201445Z 19015KT 28/18 A2995 RMK A01 T02800177  RH  056%=      5-min Rain = 0
KWVS 201450Z 19015G22KT 28/18 A2995 RMK A01 T02820175  RH  055%=      5-min Rain = 0
KWVS 201455Z 19016KT 28/17 A2995 RMK A01 T02810174  RH  055%=      5-min Rain = 0
KWVS 201500Z 19015G20KT 28/18 A2995 RMK A01 T02840176  RH  055%=      5-min Rain = 0
KWVS 201505Z 20014G19KT 28/18 A2995 RMK A01 T02840176  RH  055%=      5-min Rain = 0
KWVS 201510Z 18013G18KT 29/18 A2995 RMK A01 T02890177  RH  054%=      5-min Rain = 0
KWVS 201515Z 18014G20KT 29/18 A2995 RMK A01 T02860175  RH  054%=      5-min Rain = 0
KWVS 201520Z 18014G20KT 29/18 A2995 RMK A01 T02900176  RH  053%=      5-min Rain = 0
KWVS 201525Z 18014G20KT 29/18 A2994 RMK A01 T02920175  RH  052%=      5-min Rain = 0
KWVS 201530Z 18015G21KT 29/18 A2994 RMK A01 T02880175  RH  053%=      5-min Rain = 0
KWVS 201535Z 17013G18KT 29/18 A2994 RMK A01 T02930176  RH  052%=      5-min Rain = 0
KWVS 201540Z 17013G18KT 29/18 A2994 RMK A01 T02940176  RH  052%=      5-min Rain = 0
KWVS 201545Z 17014G21KT 29/17 A2994 RMK A01 T02940174  RH  051%=      5-min Rain = 0
KWVS 201550Z 18014KT 30/18 A2994 RMK A01 T02980176  RH  051%=      5-min Rain = 0
KWVS 201555Z 19013G18KT 30/18 A2994 RMK A01 T02990176  RH  050%=      5-min Rain = 0
KWVS 201600Z 17012G17KT 30/18 A2994 RMK A01 T03020177  RH  049%=      5-min Rain = 0
KWVS 201605Z 17013G18KT 30/17 A2994 RMK A01 T02990174  RH  049%=      5-min Rain = 0
KWVS 201610Z 16015G20KT 30/18 A2994 RMK A01 T03030176  RH  049%=      5-min Rain = 0
KWVS 201615Z 18015G21KT 31/17 A2994 RMK A01 T03050173  RH  048%=      5-min Rain = 0
KWVS 201620Z 18015G20KT 31/17 A2994 RMK A01 T03070172  RH  047%=      5-min Rain = 0
KWVS 201625Z 17013KT 31/17 A2994 RMK A01 T03120172  RH  045%=      5-min Rain = 0
KWVS 201630Z 18014G19KT 31/17 A2994 RMK A01 T03140170  RH  044%=      5-min Rain = 0
KWVS 201635Z 18013G19KT 31/17 A2994 RMK A01 T03130171  RH  045%=      5-min Rain = 0
KWVS 201640Z 18012G17KT 32/17 A2994 RMK A01 T03150170  RH  044%=      5-min Rain = 0
KWVS 201645Z 17013KT 32/17 A2994 RMK A01 T03150170  RH  044%=      5-min Rain = 0
KWVS 201650Z 17013G18KT 32/17 A2994 RMK A01 T03190170  RH  043%=      5-min Rain = 0
KWVS 201655Z 17011G17KT 32/17 A2993 RMK A01 T03220171  RH  043%=      5-min Rain = 0
KWVS 201700Z 17012G17KT 32/17 A2993 RMK A01 T03220173  RH  043%=      5-min Rain = 0
KWVS 201705Z 18013KT 32/17 A2993 RMK A01 T03230172  RH  043%=      5-min Rain = 0
KWVS 201710Z 17012G17KT 33/17 A2993 RMK A01 T03260172  RH  042%=      5-min Rain = 0
KWVS 201715Z 18011G17KT 32/17 A2993 RMK A01 T03240171  RH  042%=      5-min Rain = 0
KWVS 201720Z 17012G18KT 33/17 A2993 RMK A01 T03290171  RH  041%=      5-min Rain = 0
KWVS 201725Z 17012KT 33/17 A2993 RMK A01 T03310170  RH  040%=      5-min Rain = 0
KWVS 201730Z 17014G19KT 33/17 A2993 RMK A01 T03300169  RH  040%=      5-min Rain = 0
KWVS 201735Z 18011G17KT 33/17 A2993 RMK A01 T03340170  RH  040%=      5-min Rain = 0
KWVS 201740Z 17013G20KT 34/17 A2993 RMK A01 T03350168  RH  039%=      5-min Rain = 0
KWVS 201745Z 17013G18KT 34/17 A2993 RMK A01 T03390166  RH  037%=      5-min Rain = 0
KWVS 201750Z 18012G20KT 34/17 A2992 RMK A01 T03430168  RH  037%=      5-min Rain = 0
KWVS 201755Z 16013G18KT 34/16 A2992 RMK A01 T03400164  RH  037%=      5-min Rain = 0
KWVS 201800Z 17011G17KT 35/17 A2992 RMK A01 T03450166  RH  036%=      5-min Rain = 0
KWVS 201805Z 17012G18KT 35/17 A2992 RMK A01 T03460168  RH  037%=      5-min Rain = 0
KWVS 201810Z 19011G17KT 35/17 A2992 RMK A01 T03470167  RH  036%=      5-min Rain = 0
KWVS 201815Z 17011G20KT 35/17 A2992 RMK A01 T03530167  RH  035%=      5-min Rain = 0
KWVS 201820Z 16012G18KT 35/17 A2992 RMK A01 T03490167  RH  036%=      5-min Rain = 0
KWVS 201825Z 16012G19KT 35/17 A2992 RMK A01 T03490167  RH  036%=      5-min Rain = 0
KWVS 201830Z 17011G18KT 35/17 A2992 RMK A01 T03520166  RH  035%=      5-min Rain = 0
KWVS 201835Z 16012G17KT 36/17 A2991 RMK A01 T03560167  RH  034%=      5-min Rain = 0
KWVS 201840Z 15014KT 35/16 A2991 RMK A01 T03540163  RH  034%=      5-min Rain = 0
KWVS 201845Z 15013G20KT 36/16 A2991 RMK A01 T03550164  RH  034%=      5-min Rain = 0
KWVS 201850Z 16014G19KT 36/16 A2991 RMK A01 T03580163  RH  033%=      5-min Rain = 0
KWVS 201855Z 17012G17KT 36/17 A2991 RMK A01 T03630165  RH  033%=      5-min Rain = 0
KWVS 201900Z 18011G17KT 37/16 A2991 RMK A01 T03660161  RH  031%=      5-min Rain = 0
KWVS 201905Z 19013G19KT 36/16 A2991 RMK A01 T03640160  RH  031%=      5-min Rain = 0
KWVS 201910Z 18012G18KT 36/16 A2991 RMK A01 T03620158  RH  031%=      5-min Rain = 0
KWVS 201915Z 18013G18KT 36/16 A2991 RMK A01 T03630160  RH  032%=      5-min Rain = 0
KWVS 201920Z 18011KT 36/16 A2991 RMK A01 T03640158  RH  031%=      5-min Rain = 0
KWVS 201925Z 17012G17KT 37/16 A299 RMK A01 T03660158  RH  031%=      5-min Rain = 0
KWVS 201930Z 14011G17KT 37/15 A299 RMK A01 T03680153  RH  029%=      5-min Rain = 0
KWVS 201935Z 19012G20KT 37/16 A299 RMK A01 T03680156  RH  030%=      5-min Rain = 0
KWVS 201940Z 18011G20KT 37/16 A299 RMK A01 T03720155  RH  029%=      5-min Rain = 0
KWVS 201945Z 17013G19KT 37/15 A2989 RMK A01 T03720152  RH  029%=      5-min Rain = 0
KWVS 201950Z 17009G14KT 37/15 A2989 RMK A01 T03710149  RH  028%=      5-min Rain = 0
KWVS 201955Z 15010G19KT 38/16 A2989 RMK A01 T03770156  RH  028%=      5-min Rain = 0
KWVS 202000Z 17011G19KT 38/15 A2989 RMK A01 T03770151  RH  028%=      5-min Rain = 0
KWVS 202005Z 18010KT 38/15 A2989 RMK A01 T03790151  RH  027%=      5-min Rain = 0
KWVS 202010Z 19014G21KT 38/15 A2988 RMK A01 T03780149  RH  027%=      5-min Rain = 0
KWVS 202015Z 17012G17KT 38/15 A2988 RMK A01 T03790147  RH  026%=      5-min Rain = 0
KWVS 202020Z 16013KT 38/15 A2988 RMK A01 T03780151  RH  027%=      5-min Rain = 0
KWVS 202025Z 16012G17KT 38/15 A2988 RMK A01 T03810152  RH  027%=      5-min Rain = 0
KWVS 202030Z 17016G22KT 38/15 A2988 RMK A01 T03790147  RH  027%=      5-min Rain = 0
KWVS 202035Z 15013G20KT 38/15 A2988 RMK A01 T03830152  RH  027%=      5-min Rain = 0
KWVS 202040Z 16011KT 38/15 A2988 RMK A01 T03820151  RH  027%=      5-min Rain = 0
KWVS 202045Z 18014KT 38/15 A2988 RMK A01 T03840147  RH  026%=      5-min Rain = 0
KWVS 202050Z 18012G17KT 38/15 A2988 RMK A01 T03820148  RH  026%=      5-min Rain = 0
KWVS 202055Z 18012G18KT 38/15 A2987 RMK A01 T03810147  RH  026%=      5-min Rain = 0
KWVS 202100Z 20012G17KT 38/15 A2987 RMK A01 T03800145  RH  026%=      5-min Rain = 0
KWVS 202105Z 16011KT 38/15 A2987 RMK A01 T03820151  RH  027%=      5-min Rain = 0
KWVS 202110Z 16012G18KT 38/15 A2987 RMK A01 T03830152  RH  027%=      5-min Rain = 0
KWVS 202115Z 16010G19KT 39/15 A2987 RMK A01 T03860152  RH  026%=      5-min Rain = 0
KWVS 202120Z 15012G17KT 38/15 A2987 RMK A01 T03830151  RH  027%=      5-min Rain = 0
KWVS 202125Z 15012G17KT 39/15 A2986 RMK A01 T03860151  RH  026%=      5-min Rain = 0
KWVS 202130Z 16013KT 39/15 A2986 RMK A01 T03860149  RH  026%=      5-min Rain = 0
KWVS 202135Z 15009G16KT 39/15 A2986 RMK A01 T03870149  RH  026%=      5-min Rain = 0
KWVS 202140Z 14013G18KT 39/15 A2986 RMK A01 T03860148  RH  026%=      5-min Rain = 0
KWVS 202145Z 17011G18KT 39/15 A2985 RMK A01 T03880150  RH  026%=      5-min Rain = 0
KWVS 202150Z 15011G20KT 39/15 A2985 RMK A01 T03860149  RH  026%=      5-min Rain = 0
KWVS 202155Z 15011G16KT 39/15 A2985 RMK A01 T03850148  RH  026%=      5-min Rain = 0
KWVS 202200Z 15014G20KT 38/15 A2985 RMK A01 T03840148  RH  026%=      5-min Rain = 0
KWVS 202205Z 16010G17KT 38/15 A2985 RMK A01 T03830146  RH  026%=      5-min Rain = 0
KWVS 202210Z 17011G20KT 39/15 A2985 RMK A01 T03880148  RH  025%=      5-min Rain = 0
KWVS 202215Z 15014KT 39/15 A2985 RMK A01 T03890148  RH  025%=      5-min Rain = 0
KWVS 202220Z 19010G17KT 39/15 A2984 RMK A01 T03870145  RH  025%=      5-min Rain = 0
KWVS 202225Z 16012KT 39/15 A2984 RMK A01 T03930146  RH  024%=      5-min Rain = 0
KWVS 202230Z 16015G21KT 39/14 A2984 RMK A01 T03890141  RH  024%=      5-min Rain = 0
KWVS 202235Z 14012KT 39/14 A2984 RMK A01 T03890143  RH  024%=      5-min Rain = 0
KWVS 202240Z 15011G18KT 39/14 A2984 RMK A01 T03890142  RH  024%=      5-min Rain = 0
KWVS 202245Z 17013G20KT 39/14 A2983 RMK A01 T03900143  RH  024%=      5-min Rain = 0
KWVS 202250Z 16014G19KT 39/14 A2983 RMK A01 T03900143  RH  024%=      5-min Rain = 0
KWVS 202255Z 16012G18KT 39/14 A2983 RMK A01 T03870143  RH  025%=      5-min Rain = 0
KWVS 202300Z 16012G19KT 39/14 A2983 RMK A01 T03860142  RH  025%=      5-min Rain = 0
KWVS 202305Z 18014KT 39/14 A2983 RMK A01 T03860141  RH  025%=      5-min Rain = 0
KWVS 202310Z 15013G18KT 39/14 A2983 RMK A01 T03860141  RH  024%=      5-min Rain = 0
KWVS 202315Z 16012KT 38/14 A2983 RMK A01 T03830139  RH  025%=      5-min Rain = 0
KWVS 202320Z 17014G20KT 38/14 A2983 RMK A01 T03840139  RH  024%=      5-min Rain = 0
KWVS 202325Z 16011G21KT 38/14 A2983 RMK A01 T03840138  RH  024%=      5-min Rain = 0
KWVS 202330Z 14012G20KT 39/14 A2982 RMK A01 T03850139  RH  024%=      5-min Rain = 0
KWVS 202335Z 16012KT 39/14 A2982 RMK A01 T03880138  RH  024%=      5-min Rain = 0
KWVS 202340Z 17012G19KT 39/14 A2982 RMK A01 T03860135  RH  024%=      5-min Rain = 0
KWVS 202345Z 15014G19KT 38/14 A2982 RMK A01 T03840136  RH  024%=      5-min Rain = 0
KWVS 202350Z 14012G17KT 38/14 A2982 RMK A01 T03840136  RH  024%=      5-min Rain = 0
KWVS 202355Z 15014G19KT 38/13 A2982 RMK A01 T03840134  RH  024%=      5-min Rain = 0
KWVS 210000Z 15013KT 38/13 A2982 RMK A01 T03830134  RH  024%=      5-min Rain = 0
KWVS 210005Z 15012G19KT 38/13 A2982 RMK A01 T03820133  RH  024%=      5-min Rain = 0
KWVS 210010Z 15013KT 38/13 A2982 RMK A01 T03820133  RH  024%=      5-min Rain = 0
KWVS 210015Z 15015G20KT 38/13 A2982 RMK A01 T03810132  RH  024%=      5-min Rain = 0
KWVS 210020Z 14013KT 38/13 A2982 RMK A01 T03800133  RH  024%=      5-min Rain = 0
KWVS 210025Z 14012G18KT 38/14 A2982 RMK A01 T03800136  RH  024%=      5-min Rain = 0
KWVS 210030Z 14013KT 38/14 A2982 RMK A01 T03780140  RH  025%=      5-min Rain = 0
KWVS 210035Z 15012KT 38/13 A2982 RMK A01 T03770132  RH  024%=      5-min Rain = 0
KWVS 210040Z 16015G22KT 38/14 A2982 RMK A01 T03750139  RH  026%=      5-min Rain = 0
KWVS 210045Z 14017G23KT 37/14 A2982 RMK A01 T03720144  RH  027%=      5-min Rain = 0
KWVS 210050Z 14016G22KT 37/15 A2982 RMK A01 T03690146  RH  028%=      5-min Rain = 0
KWVS 210055Z 15014G19KT 37/15 A2982 RMK A01 T03670146  RH  028%=      5-min Rain = 0
KWVS 210100Z 14015KT 37/14 A2983 RMK A01 T03660144  RH  028%=      5-min Rain = 0
KWVS 210105Z 14016G23KT 36/14 A2983 RMK A01 T03640144  RH  028%=      5-min Rain = 0
KWVS 210110Z 14014G22KT 36/15 A2983 RMK A01 T03620145  RH  029%=      5-min Rain = 0
KWVS 210115Z 15014KT 36/15 A2983 RMK A01 T03600145  RH  029%=      5-min Rain = 0
KWVS 210120Z 14015G21KT 36/14 A2983 RMK A01 T03580144  RH  029%=      5-min Rain = 0
KWVS 210125Z 14014G20KT 36/14 A2983 RMK A01 T03550143  RH  029%=      5-min Rain = 0
KWVS 210130Z 14014KT 35/14 A2983 RMK A01 T03530142  RH  029%=      5-min Rain = 0
KWVS 210135Z 14013G19KT 35/14 A2983 RMK A01 T03510142  RH  030%=      5-min Rain = 0
KWVS 210140Z 14013G18KT 35/14 A2983 RMK A01 T03490141  RH  030%=      5-min Rain = 0
KWVS 210145Z 14016G25KT 35/14 A2983 RMK A01 T03470140  RH  030%=      5-min Rain = 0
KWVS 210150Z 14015G20KT 35/14 A2984 RMK A01 T03470139  RH  030%=      5-min Rain = 0
KWVS 210155Z 14014G19KT 34/14 A2984 RMK A01 T03440138  RH  030%=      5-min Rain = 0
KWVS 210200Z 14015G20KT 34/14 A2984 RMK A01 T03430138  RH  030%=      5-min Rain = 0
KWVS 210205Z 14012KT 34/14 A2984 RMK A01 T03400138  RH  031%=      5-min Rain = 0
KWVS 210210Z 14013KT 34/14 A2984 RMK A01 T03380137  RH  031%=      5-min Rain = 0
KWVS 210215Z 14013KT 34/14 A2985 RMK A01 T03380136  RH  031%=      5-min Rain = 0
KWVS 210220Z 14012KT 34/14 A2985 RMK A01 T03360135  RH  031%=      5-min Rain = 0
KWVS 210225Z 14014G19KT 34/13 A2985 RMK A01 T03350134  RH  031%=      5-min Rain = 0
KWVS 210230Z 14013G19KT 33/13 A2985 RMK A01 T03340134  RH  031%=      5-min Rain = 0
KWVS 210235Z 14013G20KT 33/13 A2985 RMK A01 T03320132  RH  031%=      5-min Rain = 0
KWVS 210240Z 14014KT 33/13 A2986 RMK A01 T03320130  RH  031%=      5-min Rain = 0
KWVS 210245Z 14014KT 33/13 A2986 RMK A01 T03310129  RH  031%=      5-min Rain = 0
KWVS 210250Z 14014KT 33/13 A2986 RMK A01 T03300127  RH  030%=      5-min Rain = 0
KWVS 210255Z 14015KT 33/13 A2986 RMK A01 T03290126  RH  030%=      5-min Rain = 0
KWVS 210300Z 14013G18KT 33/13 A2986 RMK A01 T03280125  RH  030%=      5-min Rain = 0
KWVS 210305Z 14012KT 33/13 A2986 RMK A01 T03260126  RH  031%=      5-min Rain = 0
KWVS 210310Z 14012G19KT 33/13 A2987 RMK A01 T03250126  RH  031%=      5-min Rain = 0
KWVS 210315Z 14011KT 32/13 A2987 RMK A01 T03230126  RH  031%=      5-min Rain = 0
KWVS 210320Z 14011KT 32/13 A2987 RMK A01 T03200127  RH  032%=      5-min Rain = 0
KWVS 210325Z 13010KT 32/13 A2988 RMK A01 T03180128  RH  033%=      5-min Rain = 0
KWVS 210330Z 13009KT 32/13 A2988 RMK A01 T03150129  RH  033%=      5-min Rain = 0
KWVS 210335Z 13009KT 31/13 A2988 RMK A01 T03120130  RH  034%=      5-min Rain = 0
KWVS 210340Z 13009G16KT 31/13 A2988 RMK A01 T03090130  RH  035%=      5-min Rain = 0
KWVS 210345Z 13009KT 31/13 A2988 RMK A01 T03080130  RH  035%=      5-min Rain = 0
KWVS 210350Z 14009KT 31/13 A2988 RMK A01 T03060130  RH  036%=      5-min Rain = 0
KWVS 210355Z 14011KT 31/13 A2988 RMK A01 T03050130  RH  036%=      5-min Rain = 0
KWVS 210400Z 14010KT 31/13 A2988 RMK A01 T03060129  RH  035%=      5-min Rain = 0
KWVS 210405Z 14009KT 30/13 A2989 RMK A01 T03030129  RH  036%=      5-min Rain = 0
KWVS 210410Z 14009KT 30/13 A2989 RMK A01 T03010129  RH  036%=      5-min Rain = 0
KWVS 210415Z 14010KT 30/13 A2989 RMK A01 T03020128  RH  036%=      5-min Rain = 0
KWVS 210420Z 14010KT 30/13 A299 RMK A01 T03010127  RH  036%=      5-min Rain = 0
KWVS 210425Z 14009KT 30/13 A299 RMK A01 T03000127  RH  036%=      5-min Rain = 0
KWVS 210430Z 14010KT 30/13 A299 RMK A01 T02990126  RH  036%=      5-min Rain = 0
KWVS 210435Z 14009KT 30/13 A299 RMK A01 T02980125  RH  036%=      5-min Rain = 0
KWVS 210440Z 14009KT 30/13 A2991 RMK A01 T02980125  RH  036%=      5-min Rain = 0
KWVS 210445Z 14008KT 30/13 A2991 RMK A01 T02950125  RH  037%=      5-min Rain = 0
KWVS 210450Z 13008KT 29/13 A2991 RMK A01 T02910125  RH  037%=      5-min Rain = 0
KWVS 210455Z 14008KT 29/13 A2991 RMK A01 T02900125  RH  038%=      5-min Rain = 0

Page generated in 0.0144 seconds.